sensor_id;sensor_type;location;lat;lon;timestamp;P1;durP1;ratioP1;P2;durP2;ratioP2
26319;SDS011;14024;52.226;5.200;2024-02-21T00:01:21;24.95;;;6.38;;
26319;SDS011;14024;52.226;5.200;2024-02-21T00:03:47;18.25;;;5.95;;
26319;SDS011;14024;52.226;5.200;2024-02-21T00:06:13;26.48;;;6.97;;
26319;SDS011;14024;52.226;5.200;2024-02-21T00:08:38;29.17;;;6.85;;
26319;SDS011;14024;52.226;5.200;2024-02-21T00:11:03;24.10;;;5.63;;
26319;SDS011;14024;52.226;5.200;2024-02-21T00:13:29;26.35;;;6.55;;
26319;SDS011;14024;52.226;5.200;2024-02-21T00:15:54;27.25;;;6.40;;
26319;SDS011;14024;52.226;5.200;2024-02-21T00:18:20;35.08;;;6.38;;
26319;SDS011;14024;52.226;5.200;2024-02-21T00:20:45;25.42;;;6.90;;
26319;SDS011;14024;52.226;5.200;2024-02-21T00:23:10;29.08;;;5.80;;
26319;SDS011;14024;52.226;5.200;2024-02-21T00:25:36;28.83;;;6.20;;
26319;SDS011;14024;52.226;5.200;2024-02-21T00:28:02;24.77;;;5.72;;
26319;SDS011;14024;52.226;5.200;2024-02-21T00:30:27;27.15;;;6.35;;
26319;SDS011;14024;52.226;5.200;2024-02-21T00:32:53;25.25;;;5.93;;
26319;SDS011;14024;52.226;5.200;2024-02-21T00:35:18;21.50;;;5.90;;
26319;SDS011;14024;52.226;5.200;2024-02-21T00:37:44;26.58;;;5.38;;
26319;SDS011;14024;52.226;5.200;2024-02-21T00:40:09;31.52;;;6.10;;
26319;SDS011;14024;52.226;5.200;2024-02-21T00:42:35;25.52;;;5.10;;
26319;SDS011;14024;52.226;5.200;2024-02-21T00:45:01;20.17;;;5.85;;
26319;SDS011;14024;52.226;5.200;2024-02-21T00:47:26;22.70;;;5.78;;
26319;SDS011;14024;52.226;5.200;2024-02-21T00:49:51;32.10;;;6.07;;
26319;SDS011;14024;52.226;5.200;2024-02-21T00:52:17;18.35;;;5.63;;
26319;SDS011;14024;52.226;5.200;2024-02-21T00:54:43;24.27;;;5.13;;
26319;SDS011;14024;52.226;5.200;2024-02-21T00:57:08;27.48;;;6.90;;
26319;SDS011;14024;52.226;5.200;2024-02-21T00:59:33;26.23;;;5.47;;
26319;SDS011;14024;52.226;5.200;2024-02-21T01:01:59;18.85;;;5.50;;
26319;SDS011;14024;52.226;5.200;2024-02-21T01:04:24;32.20;;;5.97;;
26319;SDS011;14024;52.226;5.200;2024-02-21T01:06:49;21.60;;;5.78;;
26319;SDS011;14024;52.226;5.200;2024-02-21T01:09:15;26.55;;;6.07;;
26319;SDS011;14024;52.226;5.200;2024-02-21T01:11:40;23.95;;;5.70;;
26319;SDS011;14024;52.226;5.200;2024-02-21T01:14:05;30.13;;;6.60;;
26319;SDS011;14024;52.226;5.200;2024-02-21T01:16:31;18.10;;;6.00;;
26319;SDS011;14024;52.226;5.200;2024-02-21T01:18:56;23.55;;;6.18;;
26319;SDS011;14024;52.226;5.200;2024-02-21T01:21:22;29.77;;;6.32;;
26319;SDS011;14024;52.226;5.200;2024-02-21T01:23:48;30.50;;;7.30;;
26319;SDS011;14024;52.226;5.200;2024-02-21T01:26:13;20.98;;;6.47;;
26319;SDS011;14024;52.226;5.200;2024-02-21T01:28:40;28.08;;;7.18;;
26319;SDS011;14024;52.226;5.200;2024-02-21T01:31:05;27.50;;;7.03;;
26319;SDS011;14024;52.226;5.200;2024-02-21T01:33:31;24.55;;;7.47;;
26319;SDS011;14024;52.226;5.200;2024-02-21T01:36:00;34.53;;;7.43;;
26319;SDS011;14024;52.226;5.200;2024-02-21T01:38:26;26.42;;;6.72;;
26319;SDS011;14024;52.226;5.200;2024-02-21T01:40:53;28.15;;;7.35;;
26319;SDS011;14024;52.226;5.200;2024-02-21T01:43:19;33.55;;;7.25;;
26319;SDS011;14024;52.226;5.200;2024-02-21T01:45:46;27.10;;;6.75;;
26319;SDS011;14024;52.226;5.200;2024-02-21T01:48:15;33.47;;;7.10;;
26319;SDS011;14024;52.226;5.200;2024-02-21T01:50:42;23.27;;;6.97;;
26319;SDS011;14024;52.226;5.200;2024-02-21T01:53:08;21.35;;;6.38;;
26319;SDS011;14024;52.226;5.200;2024-02-21T01:55:34;24.23;;;6.70;;
26319;SDS011;14024;52.226;5.200;2024-02-21T01:58:00;25.55;;;6.22;;
26319;SDS011;14024;52.226;5.200;2024-02-21T02:00:26;25.58;;;6.28;;
26319;SDS011;14024;52.226;5.200;2024-02-21T02:02:52;29.50;;;6.85;;
26319;SDS011;14024;52.226;5.200;2024-02-21T02:05:18;24.00;;;5.70;;
26319;SDS011;14024;52.226;5.200;2024-02-21T02:07:46;22.38;;;5.88;;
26319;SDS011;14024;52.226;5.200;2024-02-21T02:10:12;28.17;;;6.30;;
26319;SDS011;14024;52.226;5.200;2024-02-21T02:12:38;29.85;;;6.70;;
26319;SDS011;14024;52.226;5.200;2024-02-21T02:15:03;31.33;;;6.13;;
26319;SDS011;14024;52.226;5.200;2024-02-21T02:17:31;31.23;;;5.53;;
26319;SDS011;14024;52.226;5.200;2024-02-21T02:19:57;19.85;;;5.32;;
26319;SDS011;14024;52.226;5.200;2024-02-21T02:22:23;29.75;;;6.30;;
26319;SDS011;14024;52.226;5.200;2024-02-21T02:24:53;34.53;;;7.07;;
26319;SDS011;14024;52.226;5.200;2024-02-21T02:27:19;29.48;;;6.10;;
26319;SDS011;14024;52.226;5.200;2024-02-21T02:29:45;35.30;;;5.68;;
26319;SDS011;14024;52.226;5.200;2024-02-21T02:32:10;31.50;;;5.78;;
26319;SDS011;14024;52.226;5.200;2024-02-21T02:34:36;25.85;;;5.68;;
26319;SDS011;14024;52.226;5.200;2024-02-21T02:37:01;32.28;;;6.40;;
26319;SDS011;14024;52.226;5.200;2024-02-21T02:39:28;24.45;;;5.85;;
26319;SDS011;14024;52.226;5.200;2024-02-21T02:41:53;23.38;;;5.93;;
26319;SDS011;14024;52.226;5.200;2024-02-21T02:44:19;32.40;;;6.18;;
26319;SDS011;14024;52.226;5.200;2024-02-21T02:46:44;38.17;;;6.43;;
26319;SDS011;14024;52.226;5.200;2024-02-21T02:49:09;39.95;;;6.93;;
26319;SDS011;14024;52.226;5.200;2024-02-21T02:51:35;27.10;;;5.97;;
26319;SDS011;14024;52.226;5.200;2024-02-21T02:54:00;27.08;;;6.35;;
26319;SDS011;14024;52.226;5.200;2024-02-21T02:56:25;19.95;;;5.97;;
26319;SDS011;14024;52.226;5.200;2024-02-21T02:58:51;35.47;;;5.60;;
26319;SDS011;14024;52.226;5.200;2024-02-21T03:01:16;25.67;;;5.93;;
26319;SDS011;14024;52.226;5.200;2024-02-21T03:03:41;37.95;;;6.82;;
26319;SDS011;14024;52.226;5.200;2024-02-21T03:06:07;19.15;;;6.32;;
26319;SDS011;14024;52.226;5.200;2024-02-21T03:08:32;31.00;;;6.28;;
26319;SDS011;14024;52.226;5.200;2024-02-21T03:10:58;21.83;;;5.82;;
26319;SDS011;14024;52.226;5.200;2024-02-21T03:13:24;28.38;;;6.65;;
26319;SDS011;14024;52.226;5.200;2024-02-21T03:15:50;32.08;;;6.85;;
26319;SDS011;14024;52.226;5.200;2024-02-21T03:18:15;29.90;;;6.70;;
26319;SDS011;14024;52.226;5.200;2024-02-21T03:20:41;29.35;;;7.20;;
26319;SDS011;14024;52.226;5.200;2024-02-21T03:23:06;24.50;;;6.40;;
26319;SDS011;14024;52.226;5.200;2024-02-21T03:25:32;25.73;;;6.60;;
26319;SDS011;14024;52.226;5.200;2024-02-21T03:27:57;30.80;;;6.47;;
26319;SDS011;14024;52.226;5.200;2024-02-21T03:30:22;22.30;;;6.28;;
26319;SDS011;14024;52.226;5.200;2024-02-21T03:32:48;29.80;;;7.32;;
26319;SDS011;14024;52.226;5.200;2024-02-21T03:35:13;20.00;;;5.88;;
26319;SDS011;14024;52.226;5.200;2024-02-21T03:37:39;21.30;;;7.40;;
26319;SDS011;14024;52.226;5.200;2024-02-21T03:40:10;21.60;;;6.72;;
26319;SDS011;14024;52.226;5.200;2024-02-21T03:42:35;26.65;;;7.22;;
26319;SDS011;14024;52.226;5.200;2024-02-21T03:45:01;30.98;;;6.68;;
26319;SDS011;14024;52.226;5.200;2024-02-21T03:47:26;39.38;;;7.25;;
26319;SDS011;14024;52.226;5.200;2024-02-21T03:49:52;22.27;;;6.65;;
26319;SDS011;14024;52.226;5.200;2024-02-21T03:52:17;25.70;;;7.10;;
26319;SDS011;14024;52.226;5.200;2024-02-21T03:54:42;24.95;;;7.55;;
26319;SDS011;14024;52.226;5.200;2024-02-21T03:57:08;28.85;;;7.57;;
26319;SDS011;14024;52.226;5.200;2024-02-21T03:59:33;24.35;;;6.38;;
26319;SDS011;14024;52.226;5.200;2024-02-21T04:01:59;29.48;;;7.55;;
26319;SDS011;14024;52.226;5.200;2024-02-21T04:04:24;30.92;;;6.90;;
26319;SDS011;14024;52.226;5.200;2024-02-21T04:06:50;21.33;;;6.78;;
26319;SDS011;14024;52.226;5.200;2024-02-21T04:09:16;20.50;;;6.88;;
26319;SDS011;14024;52.226;5.200;2024-02-21T04:11:42;25.55;;;6.60;;
26319;SDS011;14024;52.226;5.200;2024-02-21T04:14:07;23.50;;;6.57;;
26319;SDS011;14024;52.226;5.200;2024-02-21T04:16:34;26.42;;;6.78;;
26319;SDS011;14024;52.226;5.200;2024-02-21T04:19:00;28.20;;;8.18;;
26319;SDS011;14024;52.226;5.200;2024-02-21T04:21:26;32.17;;;9.93;;
26319;SDS011;14024;52.226;5.200;2024-02-21T04:23:52;28.23;;;9.52;;
26319;SDS011;14024;52.226;5.200;2024-02-21T04:26:17;41.17;;;10.00;;
26319;SDS011;14024;52.226;5.200;2024-02-21T04:28:44;24.00;;;10.30;;
26319;SDS011;14024;52.226;5.200;2024-02-21T04:31:10;31.13;;;10.48;;
26319;SDS011;14024;52.226;5.200;2024-02-21T04:33:35;25.63;;;10.32;;
26319;SDS011;14024;52.226;5.200;2024-02-21T04:36:00;26.45;;;9.88;;
26319;SDS011;14024;52.226;5.200;2024-02-21T04:38:27;32.85;;;11.38;;
26319;SDS011;14024;52.226;5.200;2024-02-21T04:40:53;24.48;;;10.18;;
26319;SDS011;14024;52.226;5.200;2024-02-21T04:43:19;33.80;;;9.65;;
26319;SDS011;14024;52.226;5.200;2024-02-21T04:45:46;24.73;;;9.80;;
26319;SDS011;14024;52.226;5.200;2024-02-21T04:48:11;29.00;;;10.32;;
26319;SDS011;14024;52.226;5.200;2024-02-21T04:50:37;24.77;;;9.27;;
26319;SDS011;14024;52.226;5.200;2024-02-21T04:53:02;26.67;;;9.45;;
26319;SDS011;14024;52.226;5.200;2024-02-21T04:55:27;23.95;;;9.27;;
26319;SDS011;14024;52.226;5.200;2024-02-21T04:57:53;23.20;;;9.05;;
26319;SDS011;14024;52.226;5.200;2024-02-21T05:00:19;21.42;;;9.60;;
26319;SDS011;14024;52.226;5.200;2024-02-21T05:02:44;24.65;;;10.07;;
26319;SDS011;14024;52.226;5.200;2024-02-21T05:05:11;21.85;;;8.60;;
26319;SDS011;14024;52.226;5.200;2024-02-21T05:07:36;27.33;;;9.68;;
26319;SDS011;14024;52.226;5.200;2024-02-21T05:10:01;23.02;;;10.40;;
26319;SDS011;14024;52.226;5.200;2024-02-21T05:12:27;26.23;;;9.57;;
26319;SDS011;14024;52.226;5.200;2024-02-21T05:14:52;25.27;;;9.75;;
26319;SDS011;14024;52.226;5.200;2024-02-21T05:17:18;20.60;;;10.18;;
26319;SDS011;14024;52.226;5.200;2024-02-21T05:19:43;26.02;;;10.57;;
26319;SDS011;14024;52.226;5.200;2024-02-21T05:22:09;22.85;;;9.93;;
26319;SDS011;14024;52.226;5.200;2024-02-21T05:24:34;26.25;;;10.30;;
26319;SDS011;14024;52.226;5.200;2024-02-21T05:26:59;30.13;;;11.10;;
26319;SDS011;14024;52.226;5.200;2024-02-21T05:29:25;25.15;;;9.98;;
26319;SDS011;14024;52.226;5.200;2024-02-21T05:34:15;23.13;;;10.90;;
26319;SDS011;14024;52.226;5.200;2024-02-21T05:36:40;31.00;;;11.35;;
26319;SDS011;14024;52.226;5.200;2024-02-21T05:39:06;31.50;;;13.23;;
26319;SDS011;14024;52.226;5.200;2024-02-21T05:41:32;24.40;;;11.38;;
26319;SDS011;14024;52.226;5.200;2024-02-21T05:43:59;30.00;;;12.30;;
26319;SDS011;14024;52.226;5.200;2024-02-21T05:46:24;25.00;;;12.77;;
26319;SDS011;14024;52.226;5.200;2024-02-21T05:48:49;25.13;;;11.65;;
26319;SDS011;14024;52.226;5.200;2024-02-21T05:51:15;27.58;;;12.90;;
26319;SDS011;14024;52.226;5.200;2024-02-21T05:53:43;25.10;;;12.52;;
26319;SDS011;14024;52.226;5.200;2024-02-21T05:56:12;32.60;;;13.88;;
26319;SDS011;14024;52.226;5.200;2024-02-21T05:58:38;31.33;;;13.30;;
26319;SDS011;14024;52.226;5.200;2024-02-21T06:01:06;30.85;;;13.57;;
26319;SDS011;14024;52.226;5.200;2024-02-21T06:03:33;35.28;;;13.70;;
26319;SDS011;14024;52.226;5.200;2024-02-21T06:05:59;28.98;;;14.23;;
26319;SDS011;14024;52.226;5.200;2024-02-21T06:08:25;29.73;;;13.05;;
26319;SDS011;14024;52.226;5.200;2024-02-21T06:10:51;30.15;;;13.82;;
26319;SDS011;14024;52.226;5.200;2024-02-21T06:13:26;34.33;;;13.80;;
26319;SDS011;14024;52.226;5.200;2024-02-21T06:15:53;33.70;;;13.88;;
26319;SDS011;14024;52.226;5.200;2024-02-21T06:18:20;30.58;;;13.18;;
26319;SDS011;14024;52.226;5.200;2024-02-21T06:20:46;29.80;;;11.82;;
26319;SDS011;14024;52.226;5.200;2024-02-21T06:23:15;24.98;;;13.05;;
26319;SDS011;14024;52.226;5.200;2024-02-21T06:25:41;27.77;;;13.27;;
26319;SDS011;14024;52.226;5.200;2024-02-21T06:28:07;29.45;;;12.70;;
26319;SDS011;14024;52.226;5.200;2024-02-21T06:30:32;30.42;;;12.68;;
26319;SDS011;14024;52.226;5.200;2024-02-21T06:32:58;33.50;;;13.98;;
26319;SDS011;14024;52.226;5.200;2024-02-21T06:35:24;33.08;;;13.82;;
26319;SDS011;14024;52.226;5.200;2024-02-21T06:37:49;31.80;;;14.18;;
26319;SDS011;14024;52.226;5.200;2024-02-21T06:40:25;25.88;;;13.55;;
26319;SDS011;14024;52.226;5.200;2024-02-21T06:42:51;36.80;;;14.75;;
26319;SDS011;14024;52.226;5.200;2024-02-21T06:45:17;29.05;;;13.68;;
26319;SDS011;14024;52.226;5.200;2024-02-21T06:47:44;32.88;;;16.25;;
26319;SDS011;14024;52.226;5.200;2024-02-21T06:50:10;31.55;;;15.13;;
26319;SDS011;14024;52.226;5.200;2024-02-21T06:52:38;38.28;;;15.48;;
26319;SDS011;14024;52.226;5.200;2024-02-21T06:55:03;34.15;;;14.57;;
26319;SDS011;14024;52.226;5.200;2024-02-21T06:57:29;40.00;;;16.50;;
26319;SDS011;14024;52.226;5.200;2024-02-21T06:59:54;41.72;;;15.55;;
26319;SDS011;14024;52.226;5.200;2024-02-21T07:02:20;31.73;;;16.20;;
26319;SDS011;14024;52.226;5.200;2024-02-21T07:04:45;37.88;;;15.68;;
26319;SDS011;14024;52.226;5.200;2024-02-21T07:07:10;34.40;;;16.42;;
26319;SDS011;14024;52.226;5.200;2024-02-21T07:09:36;33.63;;;15.65;;
26319;SDS011;14024;52.226;5.200;2024-02-21T07:12:01;38.35;;;17.40;;
26319;SDS011;14024;52.226;5.200;2024-02-21T07:14:29;37.63;;;16.60;;
26319;SDS011;14024;52.226;5.200;2024-02-21T07:16:54;39.03;;;16.38;;
26319;SDS011;14024;52.226;5.200;2024-02-21T07:19:20;35.95;;;16.42;;
26319;SDS011;14024;52.226;5.200;2024-02-21T07:21:45;36.03;;;15.80;;
26319;SDS011;14024;52.226;5.200;2024-02-21T07:24:11;34.85;;;16.17;;
26319;SDS011;14024;52.226;5.200;2024-02-21T07:26:41;34.22;;;15.25;;
26319;SDS011;14024;52.226;5.200;2024-02-21T07:29:07;36.20;;;15.77;;
26319;SDS011;14024;52.226;5.200;2024-02-21T07:31:38;31.02;;;14.68;;
26319;SDS011;14024;52.226;5.200;2024-02-21T07:34:05;37.83;;;14.77;;
26319;SDS011;14024;52.226;5.200;2024-02-21T07:36:30;39.30;;;15.55;;
26319;SDS011;14024;52.226;5.200;2024-02-21T07:38:55;42.63;;;15.85;;
26319;SDS011;14024;52.226;5.200;2024-02-21T07:41:21;34.35;;;15.10;;
26319;SDS011;14024;52.226;5.200;2024-02-21T07:43:46;44.03;;;16.65;;
26319;SDS011;14024;52.226;5.200;2024-02-21T07:46:13;42.53;;;18.02;;
26319;SDS011;14024;52.226;5.200;2024-02-21T07:48:38;35.00;;;14.55;;
26319;SDS011;14024;52.226;5.200;2024-02-21T07:51:04;42.63;;;15.82;;
26319;SDS011;14024;52.226;5.200;2024-02-21T07:53:32;38.63;;;15.77;;
26319;SDS011;14024;52.226;5.200;2024-02-21T07:55:57;44.88;;;16.88;;
26319;SDS011;14024;52.226;5.200;2024-02-21T07:58:23;35.67;;;17.20;;
26319;SDS011;14024;52.226;5.200;2024-02-21T08:00:48;33.40;;;15.85;;
26319;SDS011;14024;52.226;5.200;2024-02-21T08:03:13;40.42;;;16.67;;
26319;SDS011;14024;52.226;5.200;2024-02-21T08:05:42;41.58;;;15.90;;
26319;SDS011;14024;52.226;5.200;2024-02-21T08:08:08;44.72;;;17.48;;
26319;SDS011;14024;52.226;5.200;2024-02-21T08:10:33;42.55;;;16.50;;
26319;SDS011;14024;52.226;5.200;2024-02-21T08:12:59;43.47;;;16.48;;
26319;SDS011;14024;52.226;5.200;2024-02-21T08:15:24;40.63;;;16.02;;
26319;SDS011;14024;52.226;5.200;2024-02-21T08:17:54;34.05;;;14.75;;
26319;SDS011;14024;52.226;5.200;2024-02-21T08:20:26;39.33;;;16.15;;
26319;SDS011;14024;52.226;5.200;2024-02-21T08:22:51;35.20;;;15.98;;
26319;SDS011;14024;52.226;5.200;2024-02-21T08:25:17;38.72;;;16.15;;
26319;SDS011;14024;52.226;5.200;2024-02-21T08:27:42;37.60;;;15.82;;
26319;SDS011;14024;52.226;5.200;2024-02-21T08:30:08;36.85;;;15.23;;
26319;SDS011;14024;52.226;5.200;2024-02-21T08:32:34;36.85;;;15.88;;
26319;SDS011;14024;52.226;5.200;2024-02-21T08:35:01;39.58;;;16.58;;
26319;SDS011;14024;52.226;5.200;2024-02-21T08:37:29;35.55;;;17.38;;
26319;SDS011;14024;52.226;5.200;2024-02-21T08:39:54;40.13;;;18.58;;
26319;SDS011;14024;52.226;5.200;2024-02-21T08:42:20;40.70;;;16.70;;
26319;SDS011;14024;52.226;5.200;2024-02-21T08:44:45;47.28;;;16.92;;
26319;SDS011;14024;52.226;5.200;2024-02-21T08:47:11;45.65;;;18.88;;
26319;SDS011;14024;52.226;5.200;2024-02-21T08:49:37;50.67;;;18.27;;
26319;SDS011;14024;52.226;5.200;2024-02-21T08:52:03;37.63;;;16.42;;
26319;SDS011;14024;52.226;5.200;2024-02-21T08:54:28;40.58;;;17.30;;
26319;SDS011;14024;52.226;5.200;2024-02-21T08:56:54;44.72;;;17.20;;
26319;SDS011;14024;52.226;5.200;2024-02-21T08:59:20;44.15;;;18.52;;
26319;SDS011;14024;52.226;5.200;2024-02-21T09:01:45;38.55;;;16.92;;
26319;SDS011;14024;52.226;5.200;2024-02-21T09:04:11;42.72;;;18.98;;
26319;SDS011;14024;52.226;5.200;2024-02-21T09:06:37;41.28;;;17.95;;
26319;SDS011;14024;52.226;5.200;2024-02-21T09:09:06;39.38;;;17.30;;
26319;SDS011;14024;52.226;5.200;2024-02-21T09:11:33;39.80;;;16.77;;
26319;SDS011;14024;52.226;5.200;2024-02-21T09:13:59;43.13;;;17.40;;
26319;SDS011;14024;52.226;5.200;2024-02-21T09:16:24;40.13;;;17.63;;
26319;SDS011;14024;52.226;5.200;2024-02-21T09:18:50;43.22;;;17.33;;
26319;SDS011;14024;52.226;5.200;2024-02-21T09:21:15;31.70;;;17.65;;
26319;SDS011;14024;52.226;5.200;2024-02-21T09:23:40;37.67;;;17.73;;
26319;SDS011;14024;52.226;5.200;2024-02-21T09:26:06;35.75;;;18.05;;
26319;SDS011;14024;52.226;5.200;2024-02-21T09:28:31;35.35;;;16.90;;
26319;SDS011;14024;52.226;5.200;2024-02-21T09:30:58;36.47;;;18.00;;
26319;SDS011;14024;52.226;5.200;2024-02-21T09:33:23;37.28;;;16.08;;
26319;SDS011;14024;52.226;5.200;2024-02-21T09:35:48;40.90;;;18.02;;
26319;SDS011;14024;52.226;5.200;2024-02-21T09:38:14;33.67;;;16.38;;
26319;SDS011;14024;52.226;5.200;2024-02-21T09:40:40;31.70;;;16.08;;
26319;SDS011;14024;52.226;5.200;2024-02-21T09:43:07;31.00;;;15.88;;
26319;SDS011;14024;52.226;5.200;2024-02-21T09:45:33;36.35;;;15.50;;
26319;SDS011;14024;52.226;5.200;2024-02-21T09:50:30;28.00;;;13.32;;
26319;SDS011;14024;52.226;5.200;2024-02-21T09:52:59;29.35;;;13.38;;
26319;SDS011;14024;52.226;5.200;2024-02-21T09:55:27;36.55;;;14.50;;
26319;SDS011;14024;52.226;5.200;2024-02-21T09:57:57;29.90;;;12.68;;
26319;SDS011;14024;52.226;5.200;2024-02-21T10:00:23;30.33;;;12.82;;
26319;SDS011;14024;52.226;5.200;2024-02-21T10:02:49;35.13;;;12.23;;
26319;SDS011;14024;52.226;5.200;2024-02-21T10:05:15;26.13;;;13.15;;
26319;SDS011;14024;52.226;5.200;2024-02-21T10:07:41;37.20;;;13.93;;
26319;SDS011;14024;52.226;5.200;2024-02-21T10:10:06;34.83;;;13.10;;
26319;SDS011;14024;52.226;5.200;2024-02-21T10:12:32;28.65;;;12.43;;
26319;SDS011;14024;52.226;5.200;2024-02-21T10:15:02;22.67;;;11.73;;
26319;SDS011;14024;52.226;5.200;2024-02-21T10:17:28;25.17;;;11.90;;
26319;SDS011;14024;52.226;5.200;2024-02-21T10:19:53;28.42;;;12.85;;
26319;SDS011;14024;52.226;5.200;2024-02-21T10:22:19;26.65;;;11.52;;
26319;SDS011;14024;52.226;5.200;2024-02-21T10:24:46;26.33;;;11.90;;
26319;SDS011;14024;52.226;5.200;2024-02-21T10:27:12;28.52;;;12.15;;
26319;SDS011;14024;52.226;5.200;2024-02-21T10:29:38;22.80;;;10.65;;
26319;SDS011;14024;52.226;5.200;2024-02-21T10:34:33;22.38;;;11.27;;
26319;SDS011;14024;52.226;5.200;2024-02-21T10:37:02;19.95;;;10.20;;
26319;SDS011;14024;52.226;5.200;2024-02-21T10:39:29;26.33;;;10.65;;
26319;SDS011;14024;52.226;5.200;2024-02-21T10:42:02;21.48;;;10.80;;
26319;SDS011;14024;52.226;5.200;2024-02-21T10:44:34;21.05;;;10.57;;
26319;SDS011;14024;52.226;5.200;2024-02-21T10:47:07;19.80;;;10.20;;
26319;SDS011;14024;52.226;5.200;2024-02-21T10:49:35;22.30;;;10.63;;
26319;SDS011;14024;52.226;5.200;2024-02-21T10:52:14;19.90;;;11.20;;
26319;SDS011;14024;52.226;5.200;2024-02-21T10:54:50;23.52;;;10.48;;
26319;SDS011;14024;52.226;5.200;2024-02-21T10:57:21;17.17;;;9.40;;
26319;SDS011;14024;52.226;5.200;2024-02-21T10:59:48;17.75;;;9.50;;
26319;SDS011;14024;52.226;5.200;2024-02-21T11:02:14;16.10;;;8.70;;
26319;SDS011;14024;52.226;5.200;2024-02-21T11:04:40;20.45;;;9.00;;
26319;SDS011;14024;52.226;5.200;2024-02-21T11:07:07;17.80;;;9.40;;
26319;SDS011;14024;52.226;5.200;2024-02-21T11:09:33;16.25;;;8.77;;
26319;SDS011;14024;52.226;5.200;2024-02-21T11:12:03;18.35;;;9.30;;
26319;SDS011;14024;52.226;5.200;2024-02-21T11:14:29;18.75;;;9.95;;
26319;SDS011;14024;52.226;5.200;2024-02-21T11:16:57;18.65;;;9.05;;
26319;SDS011;14024;52.226;5.200;2024-02-21T11:19:27;18.48;;;8.60;;
26319;SDS011;14024;52.226;5.200;2024-02-21T11:21:54;14.10;;;8.18;;
26319;SDS011;14024;52.226;5.200;2024-02-21T11:24:25;18.35;;;8.23;;
26319;SDS011;14024;52.226;5.200;2024-02-21T11:29:44;15.00;;;8.38;;
26319;SDS011;14024;52.226;5.200;2024-02-21T11:32:11;15.82;;;8.50;;
26319;SDS011;14024;52.226;5.200;2024-02-21T11:34:40;19.30;;;9.15;;
26319;SDS011;14024;52.226;5.200;2024-02-21T11:37:15;18.13;;;9.23;;
26319;SDS011;14024;52.226;5.200;2024-02-21T11:39:43;16.25;;;9.90;;
26319;SDS011;14024;52.226;5.200;2024-02-21T11:42:09;18.70;;;9.88;;
26319;SDS011;14024;52.226;5.200;2024-02-21T11:44:35;19.13;;;10.02;;
26319;SDS011;14024;52.226;5.200;2024-02-21T11:47:08;19.10;;;10.98;;
26319;SDS011;14024;52.226;5.200;2024-02-21T11:49:39;20.52;;;10.10;;
26319;SDS011;14024;52.226;5.200;2024-02-21T11:52:10;17.35;;;10.00;;
26319;SDS011;14024;52.226;5.200;2024-02-21T11:54:35;24.73;;;10.63;;
26319;SDS011;14024;52.226;5.200;2024-02-21T11:57:01;18.38;;;10.77;;
26319;SDS011;14024;52.226;5.200;2024-02-21T11:59:29;19.40;;;10.20;;
26319;SDS011;14024;52.226;5.200;2024-02-21T12:01:55;18.67;;;10.48;;
26319;SDS011;14024;52.226;5.200;2024-02-21T12:04:21;20.50;;;11.00;;
26319;SDS011;14024;52.226;5.200;2024-02-21T12:06:49;22.38;;;11.50;;
26319;SDS011;14024;52.226;5.200;2024-02-21T12:09:18;18.52;;;11.23;;
26319;SDS011;14024;52.226;5.200;2024-02-21T12:11:43;27.08;;;11.35;;
26319;SDS011;14024;52.226;5.200;2024-02-21T12:14:09;20.92;;;11.57;;
26319;SDS011;14024;52.226;5.200;2024-02-21T12:16:36;20.15;;;11.82;;
26319;SDS011;14024;52.226;5.200;2024-02-21T12:19:05;19.15;;;11.25;;
26319;SDS011;14024;52.226;5.200;2024-02-21T12:21:30;19.08;;;11.48;;
26319;SDS011;14024;52.226;5.200;2024-02-21T12:23:58;22.50;;;12.05;;
26319;SDS011;14024;52.226;5.200;2024-02-21T12:26:24;23.52;;;11.45;;
26319;SDS011;14024;52.226;5.200;2024-02-21T12:28:51;20.08;;;11.73;;
26319;SDS011;14024;52.226;5.200;2024-02-21T12:31:17;17.83;;;10.45;;
26319;SDS011;14024;52.226;5.200;2024-02-21T12:33:43;20.42;;;11.02;;
26319;SDS011;14024;52.226;5.200;2024-02-21T12:36:08;22.90;;;11.13;;
26319;SDS011;14024;52.226;5.200;2024-02-21T12:38:37;21.67;;;11.18;;
26319;SDS011;14024;52.226;5.200;2024-02-21T12:41:02;21.90;;;11.00;;
26319;SDS011;14024;52.226;5.200;2024-02-21T12:43:28;18.42;;;10.73;;
26319;SDS011;14024;52.226;5.200;2024-02-21T12:45:54;18.08;;;10.05;;
26319;SDS011;14024;52.226;5.200;2024-02-21T12:48:19;23.05;;;11.25;;
26319;SDS011;14024;52.226;5.200;2024-02-21T12:50:48;24.25;;;11.82;;
26319;SDS011;14024;52.226;5.200;2024-02-21T12:53:19;15.55;;;10.13;;
26319;SDS011;14024;52.226;5.200;2024-02-21T12:55:50;20.08;;;10.38;;
26319;SDS011;14024;52.226;5.200;2024-02-21T12:58:15;17.98;;;10.90;;
26319;SDS011;14024;52.226;5.200;2024-02-21T13:00:42;19.25;;;10.75;;
26319;SDS011;14024;52.226;5.200;2024-02-21T13:03:08;15.68;;;10.48;;
26319;SDS011;14024;52.226;5.200;2024-02-21T13:05:38;20.85;;;10.55;;
26319;SDS011;14024;52.226;5.200;2024-02-21T13:08:04;23.63;;;11.20;;
26319;SDS011;14024;52.226;5.200;2024-02-21T13:10:34;17.80;;;10.23;;
26319;SDS011;14024;52.226;5.200;2024-02-21T13:13:00;17.80;;;10.30;;
26319;SDS011;14024;52.226;5.200;2024-02-21T13:15:26;20.35;;;9.65;;
26319;SDS011;14024;52.226;5.200;2024-02-21T13:17:53;17.65;;;9.77;;
26319;SDS011;14024;52.226;5.200;2024-02-21T13:20:18;17.15;;;9.68;;
26319;SDS011;14024;52.226;5.200;2024-02-21T13:22:43;14.90;;;9.60;;
26319;SDS011;14024;52.226;5.200;2024-02-21T13:25:10;16.95;;;9.80;;
26319;SDS011;14024;52.226;5.200;2024-02-21T13:27:35;18.58;;;9.80;;
26319;SDS011;14024;52.226;5.200;2024-02-21T13:30:01;17.60;;;10.32;;
26319;SDS011;14024;52.226;5.200;2024-02-21T13:32:30;20.38;;;10.35;;
26319;SDS011;14024;52.226;5.200;2024-02-21T13:34:56;15.65;;;9.15;;
26319;SDS011;14024;52.226;5.200;2024-02-21T13:37:24;17.05;;;9.57;;
26319;SDS011;14024;52.226;5.200;2024-02-21T13:39:51;12.85;;;8.57;;
26319;SDS011;14024;52.226;5.200;2024-02-21T13:42:17;18.20;;;9.65;;
26319;SDS011;14024;52.226;5.200;2024-02-21T13:44:42;16.92;;;9.27;;
26319;SDS011;14024;52.226;5.200;2024-02-21T13:47:08;15.07;;;8.52;;
26319;SDS011;14024;52.226;5.200;2024-02-21T13:49:34;17.73;;;8.90;;
26319;SDS011;14024;52.226;5.200;2024-02-21T13:52:00;17.27;;;8.70;;
26319;SDS011;14024;52.226;5.200;2024-02-21T13:54:26;18.80;;;8.80;;
26319;SDS011;14024;52.226;5.200;2024-02-21T13:56:51;20.95;;;9.38;;
26319;SDS011;14024;52.226;5.200;2024-02-21T13:59:16;17.65;;;8.48;;
26319;SDS011;14024;52.226;5.200;2024-02-21T14:01:43;18.60;;;9.75;;
26319;SDS011;14024;52.226;5.200;2024-02-21T14:04:08;18.15;;;10.02;;
26319;SDS011;14024;52.226;5.200;2024-02-21T14:06:33;19.70;;;9.55;;
26319;SDS011;14024;52.226;5.200;2024-02-21T14:09:00;15.93;;;9.15;;
26319;SDS011;14024;52.226;5.200;2024-02-21T14:11:28;14.90;;;9.25;;
26319;SDS011;14024;52.226;5.200;2024-02-21T14:13:54;17.05;;;9.90;;
26319;SDS011;14024;52.226;5.200;2024-02-21T14:16:22;19.98;;;9.88;;
26319;SDS011;14024;52.226;5.200;2024-02-21T14:18:48;21.00;;;9.07;;
26319;SDS011;14024;52.226;5.200;2024-02-21T14:21:14;24.90;;;9.75;;
26319;SDS011;14024;52.226;5.200;2024-02-21T14:23:39;18.00;;;8.32;;
26319;SDS011;14024;52.226;5.200;2024-02-21T14:26:05;21.08;;;8.65;;
26319;SDS011;14024;52.226;5.200;2024-02-21T14:28:31;27.52;;;8.90;;
26319;SDS011;14024;52.226;5.200;2024-02-21T14:30:58;21.52;;;8.38;;
26319;SDS011;14024;52.226;5.200;2024-02-21T14:33:25;17.33;;;8.50;;